createdAt,value
2024-03-01T00:00:30.893Z,19.50
2024-03-01T00:01:03.703Z,20.00
2024-03-01T00:01:36.586Z,19.40
2024-03-01T00:02:09.278Z,20.00
2024-03-01T00:02:41.937Z,19.90
2024-03-01T00:03:14.606Z,20.60
2024-03-01T00:03:47.303Z,19.70
2024-03-01T00:04:20.105Z,19.10
2024-03-01T00:04:52.770Z,19.70
2024-03-01T00:05:25.430Z,19.70
2024-03-01T00:05:58.114Z,20.40
2024-03-01T00:06:30.822Z,19.90
2024-03-01T00:07:03.510Z,21.00
2024-03-01T00:07:34.639Z,20.10
2024-03-01T00:08:05.657Z,19.60
2024-03-01T00:08:38.330Z,20.10
2024-03-01T00:09:10.998Z,20.10
2024-03-01T00:09:43.668Z,19.70
2024-03-01T00:10:16.400Z,19.60
2024-03-01T00:10:49.203Z,19.60
2024-03-01T00:11:21.940Z,20.30
2024-03-01T00:11:54.648Z,20.70
2024-03-01T00:12:27.307Z,20.30
2024-03-01T00:12:59.992Z,20.30
2024-03-01T00:13:32.707Z,21.20
2024-03-01T00:14:05.408Z,19.40
2024-03-01T00:14:38.062Z,20.40
2024-03-01T00:15:10.752Z,20.50
2024-03-01T00:15:43.452Z,20.20
2024-03-01T00:16:16.148Z,20.00
2024-03-01T00:16:48.846Z,20.30
2024-03-01T00:17:21.505Z,20.40
2024-03-01T00:17:54.247Z,20.70
2024-03-01T00:18:26.923Z,20.60
2024-03-01T00:18:59.627Z,19.80
2024-03-01T00:19:32.461Z,20.70
2024-03-01T00:20:05.148Z,20.70
2024-03-01T00:20:37.833Z,20.80
2024-03-01T00:21:10.497Z,21.00
2024-03-01T00:21:43.205Z,20.30
2024-03-01T00:22:15.890Z,20.50
2024-03-01T00:22:48.556Z,20.40
2024-03-01T00:23:21.246Z,20.70
2024-03-01T00:23:53.898Z,20.80
2024-03-01T00:24:26.554Z,20.30
2024-03-01T00:24:59.250Z,21.40
2024-03-01T00:25:31.950Z,22.20
2024-03-01T00:26:04.758Z,21.90
2024-03-01T00:26:37.450Z,21.00
2024-03-01T00:27:10.105Z,22.40
2024-03-01T00:27:42.783Z,20.70
2024-03-01T00:28:15.502Z,20.60
2024-03-01T00:28:48.143Z,21.00
2024-03-01T00:29:20.829Z,20.70
2024-03-01T00:29:53.484Z,21.10
2024-03-01T00:30:26.162Z,21.80
2024-03-01T00:30:58.863Z,22.00
2024-03-01T00:31:30.044Z,21.10
2024-03-01T00:32:02.757Z,20.40
2024-03-01T00:32:35.414Z,21.40
2024-03-01T00:33:08.118Z,21.10
2024-03-01T00:33:40.785Z,22.20
2024-03-01T00:34:13.504Z,21.20
2024-03-01T00:34:46.212Z,21.60
2024-03-01T00:35:18.875Z,22.20
2024-03-01T00:35:51.549Z,20.80
2024-03-01T00:36:24.243Z,21.80
2024-03-01T00:36:56.997Z,22.20
2024-03-01T00:37:29.763Z,21.30
2024-03-01T00:38:02.470Z,21.70
2024-03-01T00:38:35.144Z,22.10
2024-03-01T00:39:07.843Z,21.90
2024-03-01T00:39:40.487Z,21.80
2024-03-01T00:40:13.209Z,21.80
2024-03-01T00:40:45.883Z,22.20
2024-03-01T00:41:18.570Z,22.80
2024-03-01T00:41:51.234Z,21.00
2024-03-01T00:42:23.910Z,21.50
2024-03-01T00:42:56.616Z,21.20
2024-03-01T00:43:29.410Z,21.80
2024-03-01T00:44:02.131Z,22.80
2024-03-01T00:44:34.806Z,22.90
2024-03-01T00:45:07.518Z,22.20
2024-03-01T00:45:40.153Z,22.60
2024-03-01T00:46:12.859Z,22.60
2024-03-01T00:46:45.538Z,22.70
2024-03-01T00:47:18.196Z,22.30
2024-03-01T00:47:50.930Z,22.20
2024-03-01T00:48:23.633Z,21.80
2024-03-01T00:48:56.422Z,22.50
2024-03-01T00:49:29.255Z,23.50
2024-03-01T00:50:02.069Z,22.40
2024-03-01T00:50:34.704Z,21.90
2024-03-01T00:51:07.404Z,22.40
2024-03-01T00:51:40.064Z,22.90
2024-03-01T00:52:12.746Z,22.90
2024-03-01T00:52:45.418Z,23.00
2024-03-01T00:53:18.076Z,21.60
2024-03-01T00:53:50.763Z,23.10
2024-03-01T00:54:23.427Z,22.80
2024-03-01T00:54:56.159Z,23.00
2024-03-01T00:55:29.089Z,23.60
2024-03-01T00:56:01.786Z,23.20
2024-03-01T00:56:34.449Z,23.10
2024-03-01T00:57:07.117Z,22.10
2024-03-01T00:57:39.809Z,23.10
2024-03-01T00:58:12.502Z,22.60
2024-03-01T00:58:45.218Z,22.90
2024-03-01T00:59:17.885Z,23.00
2024-03-01T00:59:50.530Z,23.10
2024-03-01T01:00:23.219Z,22.80
2024-03-01T01:00:56.028Z,23.50
2024-03-01T01:01:28.796Z,23.20
2024-03-01T01:02:01.625Z,22.90
2024-03-01T01:02:40.422Z,23.30
2024-03-01T01:03:05.375Z,23.80
2024-03-01T01:03:38.043Z,22.70
2024-03-01T01:04:10.766Z,22.10
2024-03-01T01:04:37.330Z,22.90
2024-03-01T01:05:10.162Z,23.70
2024-03-01T01:05:42.821Z,23.30
2024-03-01T01:06:15.522Z,23.10
2024-03-01T01:06:48.202Z,23.10
2024-03-01T01:07:20.865Z,23.30
2024-03-01T01:07:53.532Z,23.20
2024-03-01T01:08:26.195Z,22.60
2024-03-01T01:08:58.869Z,22.70
2024-03-01T01:09:31.557Z,23.00
2024-03-01T01:10:04.247Z,22.90
2024-03-01T01:10:37.007Z,23.60
2024-03-01T01:11:09.752Z,23.50
2024-03-01T01:11:42.401Z,23.00
2024-03-01T01:12:15.087Z,23.10
2024-03-01T01:12:47.808Z,23.50
2024-03-01T01:13:20.481Z,22.70
2024-03-01T01:13:53.141Z,22.90
2024-03-01T01:14:25.838Z,23.10
2024-03-01T01:14:58.493Z,22.70
2024-03-01T01:15:31.165Z,22.90
2024-03-01T01:16:03.896Z,23.60
2024-03-01T01:16:36.858Z,22.60
2024-03-01T01:17:09.491Z,22.90
2024-03-01T01:17:42.217Z,23.10
2024-03-01T01:18:13.290Z,24.30
2024-03-01T01:18:45.969Z,22.90
2024-03-01T01:19:18.693Z,23.20
2024-03-01T01:19:51.362Z,23.00
2024-03-01T01:20:24.176Z,23.00
2024-03-01T01:20:56.834Z,22.80
2024-03-01T01:21:29.508Z,22.70
2024-03-01T01:22:02.218Z,22.80
2024-03-01T01:22:34.992Z,23.50
2024-03-01T01:23:07.753Z,23.90
2024-03-01T01:23:40.415Z,24.10
2024-03-01T01:24:13.078Z,24.30
2024-03-01T01:24:45.742Z,23.30
2024-03-01T01:25:18.459Z,23.40
2024-03-01T01:25:51.178Z,23.30
2024-03-01T01:26:23.880Z,23.40
2024-03-01T01:26:56.537Z,23.70
2024-03-01T01:27:29.207Z,24.30
2024-03-01T01:28:01.929Z,23.70
2024-03-01T01:28:34.649Z,23.50
2024-03-01T01:29:07.343Z,24.20
2024-03-01T01:29:39.992Z,24.50
2024-03-01T01:30:12.648Z,23.70
2024-03-01T01:30:45.316Z,23.80
2024-03-01T01:31:18.074Z,23.90
2024-03-01T01:31:50.735Z,24.50
2024-03-01T01:32:23.412Z,23.90
2024-03-01T01:32:56.117Z,23.50
2024-03-01T01:33:28.785Z,25.30
2024-03-01T01:34:01.486Z,24.10
2024-03-01T01:34:34.201Z,23.70
2024-03-01T01:35:06.890Z,23.30
2024-03-01T01:35:39.578Z,24.30
2024-03-01T01:36:12.245Z,24.10
2024-03-01T01:36:44.947Z,24.90
2024-03-01T01:37:17.639Z,24.80
2024-03-01T01:37:50.340Z,24.30
2024-03-01T01:38:23.013Z,23.70
2024-03-01T01:38:55.678Z,24.00
2024-03-01T01:39:28.357Z,23.80
2024-03-01T01:39:59.504Z,25.00
2024-03-01T01:40:32.773Z,24.20
2024-03-01T01:40:59.272Z,24.00
2024-03-01T01:41:31.998Z,25.20
2024-03-01T01:42:04.621Z,24.70
2024-03-01T01:42:37.321Z,24.00
2024-03-01T01:43:10.039Z,26.20
2024-03-01T01:43:42.712Z,24.60
2024-03-01T01:44:15.398Z,25.10
2024-03-01T01:44:48.071Z,25.30
2024-03-01T01:45:20.731Z,25.40
2024-03-01T01:45:53.436Z,24.90
2024-03-01T01:46:26.249Z,25.10
2024-03-01T01:46:58.950Z,25.00
2024-03-01T01:47:31.772Z,24.60
2024-03-01T01:48:04.504Z,25.20
2024-03-01T01:48:35.541Z,25.20
2024-03-01T01:49:08.237Z,24.60
2024-03-01T01:49:40.885Z,25.10
2024-03-01T01:50:13.571Z,26.10
2024-03-01T01:50:46.368Z,24.60
2024-03-01T01:51:19.043Z,26.00
2024-03-01T01:51:51.736Z,25.50
2024-03-01T01:52:24.481Z,24.60
2024-03-01T01:52:57.147Z,25.60
2024-03-01T01:53:31.816Z,25.30
2024-03-01T01:53:58.231Z,25.60
2024-03-01T01:54:30.939Z,25.60
2024-03-01T01:55:03.630Z,26.00
2024-03-01T01:55:36.362Z,25.60
2024-03-01T01:56:09.023Z,25.80
2024-03-01T01:56:41.687Z,26.60
2024-03-01T01:57:14.361Z,25.20
2024-03-01T01:57:47.055Z,25.50
2024-03-01T01:58:19.732Z,25.50
2024-03-01T01:58:52.393Z,26.40
2024-03-01T01:59:25.054Z,25.80
2024-03-01T01:59:57.734Z,26.80
2024-03-01T02:00:30.401Z,26.10
2024-03-01T02:01:03.166Z,26.80
2024-03-01T02:01:36.022Z,26.70
2024-03-01T02:02:08.830Z,27.20
2024-03-01T02:02:41.521Z,25.80
2024-03-01T02:03:14.177Z,26.60
2024-03-01T02:03:46.854Z,26.70
2024-03-01T02:04:19.518Z,26.70
2024-03-01T02:04:52.182Z,27.00
2024-03-01T02:05:24.871Z,27.20
2024-03-01T02:05:57.592Z,27.00
2024-03-01T02:06:30.236Z,26.60
2024-03-01T02:07:02.955Z,26.80
2024-03-01T02:07:35.685Z,27.80
2024-03-01T02:08:08.351Z,26.50
2024-03-01T02:08:41.041Z,26.80
2024-03-01T02:09:14.141Z,28.00
2024-03-01T02:09:40.328Z,28.10
2024-03-01T02:10:13.039Z,26.70
2024-03-01T02:10:45.750Z,27.60
2024-03-01T02:11:18.412Z,26.80
2024-03-01T02:11:51.120Z,26.60
2024-03-01T02:12:23.779Z,27.10
2024-03-01T02:12:56.460Z,28.10
2024-03-01T02:13:29.132Z,27.60
2024-03-01T02:14:01.815Z,27.90
2024-03-01T02:14:34.487Z,28.10
2024-03-01T02:15:07.172Z,27.50
2024-03-01T02:15:39.830Z,28.80
2024-03-01T02:16:12.545Z,28.00
2024-03-01T02:16:45.237Z,28.70
2024-03-01T02:17:17.894Z,28.80
2024-03-01T02:17:50.573Z,27.70
2024-03-01T02:18:23.249Z,28.20
2024-03-01T02:18:55.949Z,28.40
2024-03-01T02:19:28.691Z,28.40
2024-03-01T02:20:01.388Z,27.30
2024-03-01T02:20:34.080Z,28.40
2024-03-01T02:21:06.867Z,27.60
2024-03-01T02:21:39.555Z,28.60
2024-03-01T02:22:12.297Z,28.00
2024-03-01T02:22:44.973Z,28.00
2024-03-01T02:23:17.622Z,29.00
2024-03-01T02:23:50.295Z,28.70
2024-03-01T02:24:22.981Z,29.90
2024-03-01T02:24:55.699Z,28.40
2024-03-01T02:25:28.441Z,29.00
2024-03-01T02:26:01.209Z,29.10
2024-03-01T02:26:33.897Z,29.50
2024-03-01T02:27:06.560Z,29.10
2024-03-01T02:27:39.222Z,29.10
2024-03-01T02:28:11.895Z,30.00
2024-03-01T02:28:44.557Z,30.00
2024-03-01T02:29:17.226Z,29.40
2024-03-01T02:29:49.910Z,29.30
2024-03-01T02:30:22.611Z,29.10
2024-03-01T02:30:55.375Z,28.90
2024-03-01T02:31:28.073Z,28.90
2024-03-01T02:32:00.786Z,29.80
2024-03-01T02:32:33.425Z,29.30
2024-03-01T02:33:06.333Z,29.00
2024-03-01T02:33:39.038Z,30.10
2024-03-01T02:34:11.715Z,30.20
2024-03-01T02:34:44.391Z,28.50
2024-03-01T02:35:17.067Z,28.80
2024-03-01T02:35:49.749Z,29.40
2024-03-01T02:36:22.552Z,29.00
2024-03-01T02:36:55.296Z,28.70
2024-03-01T02:37:28.085Z,28.40
2024-03-01T02:38:00.803Z,29.70
2024-03-01T02:38:33.470Z,29.70
2024-03-01T02:39:06.144Z,29.40
2024-03-01T02:39:38.818Z,30.00
2024-03-01T02:40:11.846Z,29.50
2024-03-01T02:40:44.522Z,30.40
2024-03-01T02:41:17.209Z,29.20
2024-03-01T02:41:49.946Z,30.60
2024-03-01T02:42:22.588Z,30.80
2024-03-01T02:42:55.283Z,29.20
2024-03-01T02:43:28.001Z,30.00
2024-03-01T02:44:00.688Z,29.60
2024-03-01T02:44:33.367Z,29.90
2024-03-01T02:45:06.048Z,29.70
2024-03-01T02:45:38.691Z,30.30
2024-03-01T02:46:11.398Z,29.80
2024-03-01T02:46:44.107Z,30.00
2024-03-01T02:47:16.773Z,30.70
2024-03-01T02:47:49.508Z,29.10
2024-03-01T02:48:22.164Z,30.50
2024-03-01T02:48:54.842Z,30.20
2024-03-01T02:49:27.538Z,30.70
2024-03-01T02:50:00.221Z,31.40
2024-03-01T02:50:32.907Z,30.10
2024-03-01T02:51:05.580Z,30.80
2024-03-01T02:51:38.270Z,31.00
2024-03-01T02:52:10.946Z,30.60
2024-03-01T02:52:43.629Z,30.00
2024-03-01T02:53:16.293Z,31.40
2024-03-01T02:53:48.965Z,30.50
2024-03-01T02:54:21.628Z,30.40
2024-03-01T02:54:54.353Z,30.50
2024-03-01T02:55:27.038Z,29.30
2024-03-01T02:55:59.713Z,31.10
2024-03-01T02:56:32.374Z,32.00
2024-03-01T02:57:05.040Z,31.30
2024-03-01T02:57:37.715Z,31.00
2024-03-01T02:58:10.415Z,31.60
2024-03-01T02:58:43.089Z,31.00
2024-03-01T02:59:15.773Z,31.00
2024-03-01T02:59:48.458Z,31.40
2024-03-01T03:00:21.129Z,30.60
2024-03-01T03:00:53.897Z,31.80
2024-03-01T03:01:26.684Z,30.60
2024-03-01T03:01:59.466Z,31.10
2024-03-01T03:02:32.138Z,31.80
2024-03-01T03:03:04.829Z,33.10
2024-03-01T03:03:37.513Z,31.20
2024-03-01T03:04:10.187Z,31.10
2024-03-01T03:04:42.870Z,32.10
2024-03-01T03:05:15.542Z,31.30
2024-03-01T03:05:48.203Z,30.50
2024-03-01T03:06:20.906Z,31.90
2024-03-01T03:06:58.862Z,30.00
2024-03-01T03:07:25.816Z,31.30
2024-03-01T03:07:52.024Z,31.40
2024-03-01T03:08:24.656Z,30.70
2024-03-01T03:08:57.337Z,32.00
2024-03-01T03:09:30.016Z,31.40
2024-03-01T03:10:02.711Z,31.60
2024-03-01T03:10:35.674Z,31.40
2024-03-01T03:11:08.456Z,32.40
2024-03-01T03:11:41.124Z,31.80
2024-03-01T03:12:13.798Z,31.40
2024-03-01T03:12:46.479Z,31.20
2024-03-01T03:13:19.173Z,31.50
2024-03-01T03:13:51.873Z,31.80
2024-03-01T03:14:24.618Z,31.80
2024-03-01T03:14:57.286Z,32.80
2024-03-01T03:15:29.968Z,32.20
2024-03-01T03:16:02.737Z,31.80
2024-03-01T03:16:35.460Z,32.30
2024-03-01T03:17:08.118Z,32.50
2024-03-01T03:17:40.818Z,31.50
2024-03-01T03:18:13.533Z,32.80
2024-03-01T03:18:46.208Z,32.40
2024-03-01T03:19:18.895Z,32.70
2024-03-01T03:19:51.562Z,31.80
2024-03-01T03:20:24.240Z,31.80
2024-03-01T03:20:56.943Z,33.10
2024-03-01T03:21:29.600Z,32.70
2024-03-01T03:22:02.436Z,32.10
2024-03-01T03:22:35.131Z,32.70
2024-03-01T03:23:07.771Z,33.60
2024-03-01T03:23:40.437Z,32.30
2024-03-01T03:24:13.117Z,32.30
2024-03-01T03:24:45.807Z,32.90
2024-03-01T03:25:18.493Z,32.60
2024-03-01T03:25:51.138Z,32.40
2024-03-01T03:26:23.808Z,31.90
2024-03-01T03:26:56.500Z,31.50
2024-03-01T03:27:29.171Z,32.30
2024-03-01T03:28:01.941Z,33.00
2024-03-01T03:28:34.682Z,31.50
2024-03-01T03:29:07.370Z,31.50
2024-03-01T03:29:40.033Z,32.50
2024-03-01T03:30:12.697Z,32.60
2024-03-01T03:30:45.363Z,33.50
2024-03-01T03:31:18.095Z,31.80
2024-03-01T03:31:50.790Z,32.20
2024-03-01T03:32:23.487Z,32.70
2024-03-01T03:32:56.173Z,31.90
2024-03-01T03:33:28.897Z,33.30
2024-03-01T03:34:01.567Z,32.80
2024-03-01T03:34:34.328Z,32.50
2024-03-01T03:35:07.046Z,32.90
2024-03-01T03:35:39.725Z,32.80
2024-03-01T03:36:12.405Z,34.30
2024-03-01T03:36:45.314Z,32.00
2024-03-01T03:37:18.143Z,33.00
2024-03-01T03:37:50.805Z,33.30
2024-03-01T03:38:23.480Z,33.40
2024-03-01T03:38:56.162Z,33.00
2024-03-01T03:39:28.845Z,34.20
2024-03-01T03:40:02.050Z,33.90
2024-03-01T03:40:28.488Z,32.70
2024-03-01T03:41:01.154Z,34.40
2024-03-01T03:41:33.815Z,33.10
2024-03-01T03:42:06.506Z,33.00
2024-03-01T03:42:39.164Z,34.50
2024-03-01T03:43:11.941Z,32.70
2024-03-01T03:43:44.628Z,33.70
2024-03-01T03:44:17.289Z,32.70
2024-03-01T03:44:49.957Z,33.60
2024-03-01T03:45:22.633Z,33.40
2024-03-01T03:45:55.343Z,33.90
2024-03-01T03:46:28.053Z,33.50
2024-03-01T03:47:00.770Z,34.60
2024-03-01T03:47:33.477Z,33.40
2024-03-01T03:48:06.202Z,33.40
2024-03-01T03:48:38.845Z,34.80
2024-03-01T03:49:11.567Z,33.30
2024-03-01T03:49:44.206Z,33.70
2024-03-01T03:50:16.910Z,34.60
2024-03-01T03:50:49.577Z,34.40
2024-03-01T03:51:20.664Z,33.50
2024-03-01T03:51:53.373Z,34.70
2024-03-01T03:52:26.147Z,33.80
2024-03-01T03:52:58.838Z,32.70
2024-03-01T03:53:31.528Z,33.60
2024-03-01T03:54:04.195Z,33.70
2024-03-01T03:54:36.850Z,33.00
2024-03-01T03:55:09.599Z,33.50
2024-03-01T03:55:42.393Z,34.10
2024-03-01T03:56:15.051Z,33.90
2024-03-01T03:56:47.785Z,34.20
2024-03-01T03:57:20.444Z,34.50
2024-03-01T03:57:53.152Z,33.50
2024-03-01T03:58:26.095Z,34.50
2024-03-01T03:58:57.846Z,35.00
2024-03-01T03:59:24.071Z,34.60
2024-03-01T03:59:56.728Z,33.50
2024-03-01T04:00:29.447Z,34.10
2024-03-01T04:01:02.209Z,33.90
2024-03-01T04:01:35.044Z,33.80
2024-03-01T04:02:07.796Z,34.30
2024-03-01T04:02:40.601Z,34.90
2024-03-01T04:03:13.250Z,34.40
2024-03-01T04:03:45.936Z,34.50
2024-03-01T04:04:18.633Z,34.10
2024-03-01T04:04:51.291Z,34.20
2024-03-01T04:05:23.973Z,34.70
2024-03-01T04:05:56.649Z,34.40
2024-03-01T04:06:29.308Z,34.70
2024-03-01T04:07:02.028Z,34.10
2024-03-01T04:07:34.937Z,35.60
2024-03-01T04:08:07.658Z,34.20
2024-03-01T04:08:40.345Z,34.30
2024-03-01T04:09:13.004Z,36.00
2024-03-01T04:09:45.688Z,33.80
2024-03-01T04:10:18.437Z,35.30
2024-03-01T04:10:51.124Z,35.30
2024-03-01T04:11:23.805Z,34.60
2024-03-01T04:11:56.524Z,33.80
2024-03-01T04:12:29.174Z,35.90
2024-03-01T04:13:01.886Z,35.30
2024-03-01T04:13:34.620Z,35.00
2024-03-01T04:14:07.292Z,35.20
2024-03-01T04:14:39.969Z,34.80
2024-03-01T04:15:12.617Z,35.00
2024-03-01T04:15:45.293Z,35.20
2024-03-01T04:16:18.006Z,35.40
2024-03-01T04:16:50.664Z,35.50
2024-03-01T04:17:23.376Z,34.40
2024-03-01T04:17:56.100Z,34.80
2024-03-01T04:18:28.750Z,35.30
2024-03-01T04:19:01.533Z,35.10
2024-03-01T04:19:34.203Z,35.10
2024-03-01T04:20:07.256Z,34.40
2024-03-01T04:20:33.531Z,34.70
2024-03-01T04:21:06.188Z,35.50
2024-03-01T04:21:38.986Z,35.30
2024-03-01T04:22:11.679Z,35.20
2024-03-01T04:22:44.515Z,35.30
2024-03-01T04:23:17.185Z,35.10
2024-03-01T04:23:49.863Z,35.50
2024-03-01T04:24:22.502Z,34.90
2024-03-01T04:24:55.223Z,33.90
2024-03-01T04:25:27.968Z,34.80
2024-03-01T04:26:00.679Z,34.30
2024-03-01T04:26:33.326Z,35.30
2024-03-01T04:27:06.056Z,34.60
2024-03-01T04:27:38.708Z,35.30
2024-03-01T04:28:09.861Z,34.80
2024-03-01T04:28:42.613Z,34.20
2024-03-01T04:29:15.284Z,35.30
2024-03-01T04:29:47.943Z,35.20
2024-03-01T04:30:20.623Z,35.10
2024-03-01T04:30:53.355Z,34.40
2024-03-01T04:31:26.100Z,35.40
2024-03-01T04:31:58.781Z,35.60
2024-03-01T04:32:31.506Z,35.30
2024-03-01T04:33:04.231Z,35.00
2024-03-01T04:33:36.896Z,34.60
2024-03-01T04:34:09.567Z,34.10
2024-03-01T04:34:42.278Z,34.40
2024-03-01T04:35:14.928Z,35.00
2024-03-01T04:35:47.605Z,35.90
2024-03-01T04:36:20.293Z,35.40
2024-03-01T04:36:53.009Z,34.40
2024-03-01T04:37:25.705Z,34.20
2024-03-01T04:37:58.399Z,34.70
2024-03-01T04:38:31.042Z,34.30
2024-03-01T04:39:03.719Z,35.00
2024-03-01T04:39:36.480Z,34.80
2024-03-01T04:40:09.174Z,36.00
2024-03-01T04:40:41.988Z,35.40
2024-03-01T04:41:14.740Z,36.50
2024-03-01T04:41:47.403Z,35.10
2024-03-01T04:42:20.088Z,35.50
2024-03-01T04:42:52.777Z,36.20
2024-03-01T04:43:25.456Z,35.00
2024-03-01T04:43:58.118Z,35.00
2024-03-01T04:44:30.791Z,35.80
2024-03-01T04:45:03.458Z,35.40
2024-03-01T04:45:36.150Z,35.10
2024-03-01T04:46:08.875Z,35.30
2024-03-01T04:46:41.617Z,35.50
2024-03-01T04:47:14.301Z,34.70
2024-03-01T04:47:47.029Z,35.10
2024-03-01T04:48:19.699Z,35.20
2024-03-01T04:48:55.961Z,35.80
2024-03-01T04:49:22.855Z,36.20
2024-03-01T04:49:55.506Z,35.70
2024-03-01T04:50:28.188Z,35.10
2024-03-01T04:51:00.852Z,35.80
2024-03-01T04:51:33.531Z,34.50
2024-03-01T04:52:06.251Z,36.10
2024-03-01T04:52:39.183Z,34.50
2024-03-01T04:53:12.032Z,35.60
2024-03-01T04:53:44.701Z,35.30
2024-03-01T04:54:17.390Z,35.20
2024-03-01T04:54:50.051Z,36.00
2024-03-01T04:55:22.751Z,36.10
2024-03-01T04:55:55.432Z,36.20
2024-03-01T04:56:28.102Z,35.50
2024-03-01T04:57:00.822Z,35.50
2024-03-01T04:57:33.485Z,35.60
2024-03-01T04:58:06.212Z,36.60
2024-03-01T04:58:38.912Z,36.00
2024-03-01T04:59:12.713Z,35.40
2024-03-01T04:59:40.259Z,35.20
2024-03-01T05:00:13.090Z,34.90
2024-03-01T05:00:45.800Z,35.90
2024-03-01T05:01:18.583Z,36.10
2024-03-01T05:01:51.384Z,35.60
2024-03-01T05:02:24.065Z,34.30
2024-03-01T05:02:56.714Z,34.90
2024-03-01T05:03:29.404Z,36.30
2024-03-01T05:04:02.096Z,35.50
2024-03-01T05:04:34.762Z,36.30
2024-03-01T05:05:07.419Z,34.90
2024-03-01T05:05:40.096Z,35.60
2024-03-01T05:06:12.768Z,34.30
2024-03-01T05:06:45.458Z,35.80
2024-03-01T05:07:18.125Z,35.70
2024-03-01T05:07:50.817Z,36.00
2024-03-01T05:08:23.581Z,36.00
2024-03-01T05:08:56.217Z,35.20
2024-03-01T05:09:28.885Z,36.40
2024-03-01T05:10:01.723Z,35.50
2024-03-01T05:10:34.512Z,35.60
2024-03-01T05:11:07.517Z,35.50
2024-03-01T05:11:33.943Z,35.60
2024-03-01T05:12:06.879Z,36.50
2024-03-01T05:12:39.562Z,35.80
2024-03-01T05:13:12.231Z,35.60
2024-03-01T05:13:44.887Z,34.80
2024-03-01T05:14:17.560Z,37.50
2024-03-01T05:14:50.220Z,36.40
2024-03-01T05:15:22.946Z,35.80
2024-03-01T05:15:55.653Z,35.20
2024-03-01T05:16:28.548Z,35.60
2024-03-01T05:17:01.268Z,36.60
2024-03-01T05:17:33.994Z,35.10
2024-03-01T05:18:07.312Z,34.40
2024-03-01T05:18:33.477Z,36.80
2024-03-01T05:19:06.173Z,35.00
2024-03-01T05:19:38.824Z,36.00
2024-03-01T05:20:11.495Z,36.20
2024-03-01T05:20:44.164Z,36.10
2024-03-01T05:21:16.860Z,35.80
2024-03-01T05:21:49.527Z,34.70
2024-03-01T05:22:22.294Z,35.70
2024-03-01T05:22:54.956Z,36.00
2024-03-01T05:23:27.755Z,36.20
2024-03-01T05:24:00.392Z,36.00
2024-03-01T05:24:33.062Z,35.90
2024-03-01T05:25:05.814Z,35.80
2024-03-01T05:25:38.475Z,35.00
2024-03-01T05:26:11.140Z,35.00
2024-03-01T05:26:43.798Z,35.00
2024-03-01T05:27:16.503Z,34.80
2024-03-01T05:27:49.175Z,35.30
2024-03-01T05:28:21.877Z,34.90
2024-03-01T05:28:54.619Z,35.60
2024-03-01T05:29:27.293Z,37.20
2024-03-01T05:29:59.963Z,36.70
2024-03-01T05:30:42.548Z,34.50
2024-03-01T05:31:14.778Z,35.00
2024-03-01T05:31:36.869Z,34.50
2024-03-01T05:32:03.052Z,35.90
2024-03-01T05:32:34.174Z,36.30
2024-03-01T05:33:06.959Z,35.20
2024-03-01T05:33:39.618Z,35.60
2024-03-01T05:34:12.333Z,35.50
2024-03-01T05:34:44.989Z,35.80
2024-03-01T05:35:17.660Z,35.00
2024-03-01T05:35:50.322Z,36.10
2024-03-01T05:36:23.031Z,35.60
2024-03-01T05:36:55.778Z,36.30
2024-03-01T05:37:28.528Z,35.30
2024-03-01T05:38:01.214Z,35.60
2024-03-01T05:38:27.694Z,35.30
2024-03-01T05:39:00.389Z,36.00
2024-03-01T05:39:33.054Z,35.30
2024-03-01T05:40:05.771Z,34.60
2024-03-01T05:40:45.998Z,36.00
2024-03-01T05:41:10.548Z,36.20
2024-03-01T05:41:36.707Z,35.70
2024-03-01T05:42:09.383Z,36.00
2024-03-01T05:42:42.054Z,35.30
2024-03-01T05:43:14.748Z,36.10
2024-03-01T05:43:47.442Z,36.10
2024-03-01T05:44:20.145Z,35.30
2024-03-01T05:44:52.800Z,35.00
2024-03-01T05:45:25.475Z,35.50
2024-03-01T05:45:58.191Z,35.50
2024-03-01T05:46:30.870Z,36.20
2024-03-01T05:47:03.538Z,35.70
2024-03-01T05:47:37.618Z,35.90
2024-03-01T05:48:04.530Z,35.80
2024-03-01T05:48:37.189Z,35.40
2024-03-01T05:49:09.935Z,36.10
2024-03-01T05:49:42.599Z,36.10
2024-03-01T05:50:15.271Z,36.00
2024-03-01T05:50:47.946Z,36.00
2024-03-01T05:51:20.621Z,36.70
2024-03-01T05:51:53.277Z,36.50
2024-03-01T05:52:26.059Z,37.70
2024-03-01T05:52:58.729Z,36.30
2024-03-01T05:53:31.380Z,36.90
2024-03-01T05:54:04.079Z,36.20
2024-03-01T05:54:36.733Z,37.20
2024-03-01T05:55:09.422Z,35.70
2024-03-01T05:55:42.074Z,36.30
2024-03-01T05:56:14.735Z,36.50
2024-03-01T05:56:47.437Z,36.50
2024-03-01T05:57:20.130Z,37.40
2024-03-01T05:57:52.850Z,36.70
2024-03-01T05:58:25.881Z,36.00
2024-03-01T05:58:52.113Z,37.50
2024-03-01T05:59:24.775Z,35.30
2024-03-01T05:59:57.450Z,35.70
2024-03-01T06:00:28.595Z,36.90
2024-03-01T06:01:01.321Z,36.20
2024-03-01T06:01:34.096Z,36.00
2024-03-01T06:02:06.912Z,36.20
2024-03-01T06:02:39.692Z,36.60
2024-03-01T06:03:12.375Z,36.00
2024-03-01T06:03:45.038Z,36.10
2024-03-01T06:04:17.733Z,36.70
2024-03-01T06:04:50.416Z,37.20
2024-03-01T06:05:23.085Z,35.50
2024-03-01T06:05:55.750Z,36.90
2024-03-01T06:06:28.422Z,36.40
2024-03-01T06:07:01.106Z,36.00
2024-03-01T06:07:33.845Z,35.40
2024-03-01T06:08:06.589Z,35.10
2024-03-01T06:08:39.247Z,36.40
2024-03-01T06:09:11.948Z,35.90
2024-03-01T06:09:44.615Z,36.00
2024-03-01T06:10:17.340Z,36.30
2024-03-01T06:10:50.070Z,35.00
2024-03-01T06:11:21.173Z,34.80
2024-03-01T06:11:53.854Z,36.50
2024-03-01T06:12:26.530Z,36.00
2024-03-01T06:12:59.665Z,36.90
2024-03-01T06:13:25.990Z,36.90
2024-03-01T06:13:58.656Z,36.00
2024-03-01T06:14:31.312Z,35.50
2024-03-01T06:15:03.981Z,35.70
2024-03-01T06:15:36.668Z,36.20
2024-03-01T06:16:09.377Z,36.70
2024-03-01T06:16:42.113Z,36.00
2024-03-01T06:17:14.782Z,36.30
2024-03-01T06:17:47.486Z,37.00
2024-03-01T06:18:20.188Z,36.60
2024-03-01T06:18:52.902Z,35.80
2024-03-01T06:19:25.566Z,36.40
2024-03-01T06:19:58.247Z,35.30
2024-03-01T06:20:30.912Z,36.00
2024-03-01T06:21:03.581Z,36.50
2024-03-01T06:21:36.298Z,36.70
2024-03-01T06:22:08.978Z,35.70
2024-03-01T06:22:41.664Z,35.80
2024-03-01T06:23:14.314Z,35.30
2024-03-01T06:23:47.021Z,36.20
2024-03-01T06:24:19.841Z,35.60
2024-03-01T06:24:52.521Z,35.80
2024-03-01T06:25:25.204Z,35.20
2024-03-01T06:25:57.880Z,35.00
2024-03-01T06:26:30.555Z,37.20
2024-03-01T06:27:03.231Z,34.90
2024-03-01T06:27:35.900Z,35.00
2024-03-01T06:28:08.628Z,35.80
2024-03-01T06:28:41.318Z,36.10
2024-03-01T06:29:13.983Z,36.20
2024-03-01T06:29:46.673Z,35.90
2024-03-01T06:30:19.341Z,35.20
2024-03-01T06:30:52.072Z,34.70
2024-03-01T06:31:24.773Z,35.80
2024-03-01T06:31:57.468Z,35.50
2024-03-01T06:32:30.144Z,34.50
2024-03-01T06:33:02.834Z,34.70
2024-03-01T06:33:35.527Z,34.70
2024-03-01T06:34:08.232Z,35.00
2024-03-01T06:34:40.964Z,35.20
2024-03-01T06:35:13.674Z,34.00
2024-03-01T06:35:46.312Z,34.80
2024-03-01T06:36:18.987Z,35.90
2024-03-01T06:36:51.778Z,35.50
2024-03-01T06:37:24.563Z,34.90
2024-03-01T06:37:57.212Z,34.90
2024-03-01T06:38:29.887Z,34.10
2024-03-01T06:39:02.638Z,34.90
2024-03-01T06:39:35.360Z,34.90
2024-03-01T06:40:08.034Z,34.60
2024-03-01T06:40:40.828Z,34.40
2024-03-01T06:41:13.560Z,35.70
2024-03-01T06:41:46.232Z,35.70
2024-03-01T06:42:18.944Z,36.00
2024-03-01T06:42:52.845Z,35.60
2024-03-01T06:43:19.325Z,35.60
2024-03-01T06:43:51.982Z,34.80
2024-03-01T06:44:24.665Z,36.40
2024-03-01T06:44:57.330Z,35.40
2024-03-01T06:45:30.019Z,35.50
2024-03-01T06:46:02.758Z,35.80
2024-03-01T06:46:35.481Z,36.00
2024-03-01T06:47:15.128Z,35.00
2024-03-01T06:47:40.302Z,34.80
2024-03-01T06:48:06.480Z,35.00
2024-03-01T06:48:39.169Z,36.20
2024-03-01T06:49:11.904Z,35.50
2024-03-01T06:49:44.560Z,35.60
2024-03-01T06:50:17.246Z,34.70
2024-03-01T06:50:49.922Z,35.80
2024-03-01T06:51:22.600Z,34.60
2024-03-01T06:51:55.312Z,36.10
2024-03-01T06:52:28.022Z,34.80
2024-03-01T06:53:00.692Z,34.80
2024-03-01T06:53:33.356Z,36.50
2024-03-01T06:54:06.036Z,35.20
2024-03-01T06:54:38.716Z,33.90
2024-03-01T06:55:11.397Z,35.10
2024-03-01T06:55:44.132Z,35.00
2024-03-01T06:56:16.821Z,34.30
2024-03-01T06:56:49.497Z,34.60
2024-03-01T06:57:22.178Z,35.50
2024-03-01T06:57:54.873Z,35.50
2024-03-01T06:58:27.596Z,34.20
2024-03-01T06:59:00.245Z,34.60